createdAt,value
2019-03-31T00:02:02.964Z,101120.98
2019-03-31T00:04:32.461Z,101129.22
2019-03-31T00:07:01.915Z,101131.95
2019-03-31T00:09:31.432Z,101123.47
2019-03-31T00:12:01.642Z,101125.96
2019-03-31T00:14:31.102Z,101129.25
2019-03-31T00:17:00.593Z,101125.45
2019-03-31T00:19:30.115Z,101126.57
2019-03-31T00:21:59.592Z,101124.94
2019-03-31T00:24:29.094Z,101119.20
2019-03-31T00:26:58.637Z,101120.31
2019-03-31T00:29:28.121Z,101125.03
2019-03-31T00:31:57.674Z,101125.61
2019-03-31T00:34:27.263Z,101130.59
2019-03-31T00:36:56.734Z,101136.13
2019-03-31T00:39:26.229Z,101128.51
2019-03-31T00:41:55.725Z,101131.02
2019-03-31T00:44:25.194Z,101136.00
2019-03-31T00:46:54.717Z,101136.06
2019-03-31T00:49:24.223Z,101137.45
2019-03-31T00:51:53.731Z,101117.74
2019-03-31T00:54:23.279Z,101123.04
2019-03-31T00:56:52.732Z,101126.06
2019-03-31T00:59:22.236Z,101125.55
2019-03-31T01:01:53.434Z,101119.58
2019-03-31T01:04:25.986Z,101109.59
2019-03-31T01:06:55.862Z,101120.72
2019-03-31T01:09:29.600Z,101119.95
2019-03-31T01:11:59.346Z,101113.12
2019-03-31T01:14:29.768Z,101118.41
2019-03-31T01:17:00.645Z,101123.92
2019-03-31T01:19:30.360Z,101119.30
2019-03-31T01:21:59.978Z,101125.09
2019-03-31T01:24:29.501Z,101121.58
2019-03-31T01:26:59.070Z,101126.55
2019-03-31T01:29:28.762Z,101126.00
2019-03-31T01:31:58.785Z,101123.57
2019-03-31T01:34:28.382Z,101120.59
2019-03-31T01:36:57.868Z,101130.77
2019-03-31T01:39:29.041Z,101137.64
2019-03-31T01:41:58.529Z,101128.90
2019-03-31T01:44:28.257Z,101124.84
2019-03-31T01:46:57.856Z,101124.33
2019-03-31T01:49:27.333Z,101122.44
2019-03-31T01:51:56.795Z,101125.47
2019-03-31T01:54:26.359Z,101132.63
2019-03-31T01:56:55.977Z,101126.06
2019-03-31T01:59:25.440Z,101124.17
2019-03-31T02:02:03.960Z,101119.55
2019-03-31T02:04:27.048Z,101117.91
2019-03-31T02:06:56.529Z,101123.70
2019-03-31T02:09:25.990Z,101115.20
2019-03-31T02:11:55.447Z,101120.98
2019-03-31T02:14:24.998Z,101122.36
2019-03-31T02:16:54.475Z,101124.02
2019-03-31T02:19:23.933Z,101121.33
2019-03-31T02:21:53.536Z,101118.59
2019-03-31T02:24:23.085Z,101124.91
2019-03-31T02:26:52.533Z,101121.34
2019-03-31T02:29:22.185Z,101114.24
2019-03-31T02:31:51.753Z,101114.55
2019-03-31T02:34:21.226Z,101115.41
2019-03-31T02:36:50.698Z,101112.15
2019-03-31T02:39:20.210Z,101111.63
2019-03-31T02:41:49.770Z,101110.80
2019-03-31T02:44:19.252Z,101118.48
2019-03-31T02:46:48.863Z,101122.06
2019-03-31T02:49:18.413Z,101125.34
2019-03-31T02:51:47.904Z,101124.80
2019-03-31T02:54:17.434Z,101117.44
2019-03-31T02:56:48.111Z,101120.72
2019-03-31T02:59:19.145Z,101119.14
2019-03-31T03:01:48.928Z,101119.14
2019-03-31T03:04:20.848Z,101122.98
2019-03-31T03:06:53.042Z,101121.90
2019-03-31T03:09:24.800Z,101127.66
2019-03-31T03:11:56.706Z,101119.18
2019-03-31T03:14:28.184Z,101127.39
2019-03-31T03:16:57.726Z,101122.25
2019-03-31T03:19:27.215Z,101120.88
2019-03-31T03:21:56.769Z,101129.09
2019-03-31T03:24:26.266Z,101120.36
2019-03-31T03:26:55.756Z,101126.14
2019-03-31T03:29:25.215Z,101125.31
2019-03-31T03:31:54.697Z,101131.36
2019-03-31T03:34:24.160Z,101125.91
2019-03-31T03:36:55.343Z,101121.00
2019-03-31T03:39:24.912Z,101123.22
2019-03-31T03:41:54.570Z,101130.34
2019-03-31T03:44:43.370Z,101127.65
2019-03-31T03:47:12.952Z,101131.23
2019-03-31T03:49:42.430Z,101126.61
2019-03-31T03:52:12.397Z,101136.20
2019-03-31T03:54:41.933Z,101135.69
2019-03-31T03:57:11.415Z,101135.42
2019-03-31T03:59:40.867Z,101126.97
2019-03-31T04:02:10.354Z,101129.44
2019-03-31T04:04:39.827Z,101133.86
2019-03-31T04:07:09.283Z,101140.98
2019-03-31T04:09:38.767Z,101139.39
2019-03-31T04:12:08.249Z,101147.34
2019-03-31T04:14:37.757Z,101143.82
2019-03-31T04:17:07.242Z,101148.51
2019-03-31T04:19:36.698Z,101147.47
2019-03-31T04:22:06.181Z,101153.52
2019-03-31T04:24:35.732Z,101151.06
2019-03-31T04:27:05.285Z,101148.91
2019-03-31T04:29:34.789Z,101150.59
2019-03-31T04:32:04.258Z,101149.50
2019-03-31T04:34:33.746Z,101145.71
2019-03-31T04:37:03.198Z,101150.38
2019-03-31T04:39:32.701Z,101149.02
2019-03-31T04:42:02.193Z,101148.23
2019-03-31T04:44:31.707Z,101153.97
2019-03-31T04:47:01.215Z,101148.23
2019-03-31T04:49:30.747Z,101144.44
2019-03-31T04:52:00.261Z,101154.55
2019-03-31T04:54:29.790Z,101159.75
2019-03-31T04:56:59.365Z,101163.59
2019-03-31T04:59:28.940Z,101157.86
2019-03-31T05:01:58.479Z,101163.59
2019-03-31T05:04:28.042Z,101176.47
2019-03-31T05:06:57.503Z,101175.95
2019-03-31T05:09:27.002Z,101180.05
2019-03-31T05:11:56.536Z,101179.78
2019-03-31T05:14:26.035Z,101185.53
2019-03-31T05:16:55.597Z,101190.73
2019-03-31T05:19:25.057Z,101194.57
2019-03-31T05:21:54.553Z,101200.05
2019-03-31T05:24:24.042Z,101202.78
2019-03-31T05:26:53.520Z,101204.19
2019-03-31T05:29:22.978Z,101210.77
2019-03-31T05:31:52.479Z,101210.50
2019-03-31T05:34:21.939Z,101212.97
2019-03-31T05:36:51.438Z,101213.81
2019-03-31T05:39:20.973Z,101225.02
2019-03-31T05:41:50.472Z,101223.11
2019-03-31T05:44:20.096Z,101220.91
2019-03-31T05:46:49.692Z,101225.59
2019-03-31T05:49:19.166Z,101221.48
2019-03-31T05:51:50.288Z,101221.48
2019-03-31T05:54:19.854Z,101217.64
2019-03-31T05:56:49.322Z,101219.02
2019-03-31T05:59:18.839Z,101221.70
2019-03-31T06:01:48.415Z,101213.77
2019-03-31T06:04:17.897Z,101222.23
2019-03-31T06:06:47.374Z,101221.66
2019-03-31T06:09:16.902Z,101227.39
2019-03-31T06:11:46.393Z,101226.51
2019-03-31T06:14:15.900Z,101228.93
2019-03-31T06:16:45.346Z,101222.34
2019-03-31T06:19:14.907Z,101222.84
2019-03-31T06:21:44.364Z,101223.35
2019-03-31T06:24:13.903Z,101222.77
2019-03-31T06:26:43.414Z,101221.88
2019-03-31T06:29:12.882Z,101217.19
2019-03-31T06:31:42.352Z,101219.02
2019-03-31T06:34:11.911Z,101224.71
2019-03-31T06:36:41.405Z,101226.80
2019-03-31T06:39:10.898Z,101225.91
2019-03-31T06:42:00.191Z,101226.94
2019-03-31T06:44:29.822Z,101235.31
2019-03-31T06:46:59.381Z,101229.43
2019-03-31T06:49:28.875Z,101232.09
2019-03-31T06:51:58.336Z,101231.95
2019-03-31T06:54:27.865Z,101233.45
2019-03-31T06:56:57.378Z,101236.83
2019-03-31T06:59:26.851Z,101235.86
2019-03-31T07:01:56.495Z,101237.27
2019-03-31T07:04:26.114Z,101243.91
2019-03-31T07:06:55.682Z,101240.33
2019-03-31T07:09:25.186Z,101246.11
2019-03-31T07:11:54.732Z,101245.75
2019-03-31T07:14:24.223Z,101240.72
2019-03-31T07:16:53.728Z,101235.41
2019-03-31T07:19:23.356Z,101238.25
2019-03-31T07:21:53.031Z,101233.48
2019-03-31T07:24:22.529Z,101227.80
2019-03-31T07:26:52.091Z,101231.45
2019-03-31T07:29:21.582Z,101227.42
2019-03-31T07:31:51.063Z,101228.30
2019-03-31T07:34:20.627Z,101226.66
2019-03-31T07:36:50.103Z,101223.66
2019-03-31T07:39:39.314Z,101224.98
2019-03-31T07:42:09.214Z,101221.41
2019-03-31T07:44:38.787Z,101229.63
2019-03-31T07:47:27.761Z,101232.45
2019-03-31T07:50:17.731Z,101238.74
2019-03-31T07:52:47.416Z,101240.66
2019-03-31T07:55:17.244Z,101241.89
2019-03-31T07:57:46.732Z,101240.53
2019-03-31T08:00:23.342Z,101246.28
2019-03-31T08:02:52.863Z,101246.25
2019-03-31T08:05:33.112Z,101250.39
2019-03-31T08:07:53.668Z,101250.13
2019-03-31T08:10:23.528Z,101255.84
2019-03-31T08:12:53.049Z,101254.14
2019-03-31T08:15:22.698Z,101260.17
2019-03-31T08:17:52.255Z,101255.80
2019-03-31T08:20:22.067Z,101265.98
2019-03-31T08:22:51.569Z,101271.24
2019-03-31T08:25:21.584Z,101275.19
2019-03-31T08:27:51.087Z,101270.78
2019-03-31T08:30:20.992Z,101267.28
2019-03-31T08:32:50.558Z,101266.19
2019-03-31T08:35:20.278Z,101268.66
2019-03-31T08:37:49.792Z,101274.98
2019-03-31T08:40:19.660Z,101275.72
2019-03-31T08:42:49.155Z,101279.00
2019-03-31T08:45:18.787Z,101283.12
2019-03-31T08:47:48.353Z,101278.75
2019-03-31T08:50:18.986Z,101285.60
2019-03-31T08:52:48.493Z,101282.14
2019-03-31T08:55:18.063Z,101282.62
2019-03-31T08:57:47.742Z,101281.69
2019-03-31T09:00:19.456Z,101282.13
2019-03-31T09:02:48.975Z,101285.81
2019-03-31T09:05:18.449Z,101280.48
2019-03-31T09:07:48.023Z,101296.25
2019-03-31T09:10:17.858Z,101291.13
2019-03-31T09:12:48.730Z,101298.73
2019-03-31T09:15:18.512Z,101302.78
2019-03-31T09:17:48.005Z,101300.77
2019-03-31T09:20:17.792Z,101307.70
2019-03-31T09:22:47.294Z,101307.44
2019-03-31T09:25:16.834Z,101307.33
2019-03-31T09:27:46.348Z,101319.02
2019-03-31T09:30:16.262Z,101313.00
2019-03-31T09:32:45.823Z,101311.87
2019-03-31T09:35:15.759Z,101319.30
2019-03-31T09:37:45.485Z,101317.37
2019-03-31T09:40:16.939Z,101326.06
2019-03-31T09:42:46.502Z,101327.95
2019-03-31T09:45:17.105Z,101333.17
2019-03-31T09:47:46.634Z,101339.55
2019-03-31T09:50:17.610Z,101342.08
2019-03-31T09:52:47.316Z,101348.58
2019-03-31T09:55:16.776Z,101355.06
2019-03-31T09:57:46.388Z,101344.38
2019-03-31T10:00:25.665Z,101348.06
2019-03-31T10:02:55.165Z,101343.65
2019-03-31T10:05:24.674Z,101346.72
2019-03-31T10:07:54.152Z,101352.33
2019-03-31T10:10:33.647Z,101350.17
2019-03-31T10:13:03.222Z,101361.21
2019-03-31T10:15:32.718Z,101368.41
2019-03-31T10:18:02.267Z,101359.88
2019-03-31T10:20:31.966Z,101365.59
2019-03-31T10:23:01.468Z,101365.28
2019-03-31T10:25:31.068Z,101363.81
2019-03-31T10:28:00.619Z,101361.75
2019-03-31T10:30:36.736Z,101361.78
2019-03-31T10:33:07.997Z,101360.52
2019-03-31T10:35:37.633Z,101364.72
2019-03-31T10:38:07.497Z,101360.59
2019-03-31T10:40:37.049Z,101361.69
2019-03-31T10:43:06.693Z,101352.26
2019-03-31T10:45:36.228Z,101354.41
2019-03-31T10:48:19.493Z,101356.88
2019-03-31T10:50:37.205Z,101358.76
2019-03-31T10:53:06.752Z,101357.88
2019-03-31T10:55:36.291Z,101359.77
2019-03-31T10:58:05.963Z,101365.97
2019-03-31T11:00:38.550Z,101370.29
2019-03-31T11:03:09.710Z,101373.44
2019-03-31T11:05:39.516Z,101365.00
2019-03-31T11:08:09.126Z,101373.71
2019-03-31T11:10:38.753Z,101370.46
2019-03-31T11:13:08.407Z,101374.44
2019-03-31T11:15:37.962Z,101372.57
2019-03-31T11:18:07.606Z,101369.91
2019-03-31T11:20:37.163Z,101370.56
2019-03-31T11:23:09.057Z,101373.33
2019-03-31T11:25:38.514Z,101371.36
2019-03-31T11:28:08.052Z,101367.20
2019-03-31T11:30:37.639Z,101361.92
2019-03-31T11:33:26.505Z,101366.31
2019-03-31T11:35:56.136Z,101376.81
2019-03-31T11:38:44.992Z,101368.77
2019-03-31T11:41:14.491Z,101372.67
2019-03-31T11:43:44.081Z,101373.81
2019-03-31T11:46:13.650Z,101365.76
2019-03-31T11:48:43.138Z,101373.81
2019-03-31T11:51:12.657Z,101368.59
2019-03-31T11:53:42.220Z,101367.80
2019-03-31T11:56:11.707Z,101362.02
2019-03-31T11:58:41.332Z,101361.44
2019-03-31T12:01:10.978Z,101360.88
2019-03-31T12:03:40.467Z,101364.93
2019-03-31T12:06:11.373Z,101373.64
2019-03-31T12:08:40.940Z,101382.01
2019-03-31T12:11:10.616Z,101376.55
2019-03-31T12:13:59.485Z,101378.48
2019-03-31T12:16:29.019Z,101380.41
2019-03-31T12:18:58.619Z,101380.06
2019-03-31T12:21:28.185Z,101378.42
2019-03-31T12:23:57.736Z,101380.04
2019-03-31T12:26:27.222Z,101388.30
2019-03-31T12:28:56.801Z,101381.28
2019-03-31T12:31:26.283Z,101381.46
2019-03-31T12:33:55.860Z,101385.24
2019-03-31T12:36:25.431Z,101373.85
2019-03-31T12:38:54.930Z,101368.59
2019-03-31T12:41:24.513Z,101371.88
2019-03-31T12:43:54.055Z,101362.79
2019-03-31T12:46:23.555Z,101370.59
2019-03-31T12:48:54.016Z,101368.53
2019-03-31T12:51:23.513Z,101373.31
2019-03-31T12:53:52.987Z,101370.42
2019-03-31T12:56:22.635Z,101367.22
2019-03-31T12:58:52.120Z,101365.98
2019-03-31T13:01:21.670Z,101364.95
2019-03-31T13:03:51.253Z,101369.06
2019-03-31T13:06:20.737Z,101364.38
2019-03-31T13:08:50.288Z,101360.13
2019-03-31T13:11:19.878Z,101355.08
2019-03-31T13:13:49.406Z,101356.40
2019-03-31T13:16:18.953Z,101355.73
2019-03-31T13:18:48.585Z,101349.33
2019-03-31T13:21:18.154Z,101342.67
2019-03-31T13:23:47.798Z,101341.53
2019-03-31T13:26:19.013Z,101338.77
2019-03-31T13:28:48.552Z,101333.70
2019-03-31T13:31:18.065Z,101330.47
2019-03-31T13:33:47.614Z,101334.64
2019-03-31T13:36:17.271Z,101333.39
2019-03-31T13:38:46.749Z,101344.73
2019-03-31T13:41:16.253Z,101335.95
2019-03-31T13:43:45.740Z,101332.94
2019-03-31T13:46:15.437Z,101321.97
2019-03-31T13:48:44.927Z,101320.11
2019-03-31T13:51:14.480Z,101323.58
2019-03-31T13:53:43.991Z,101309.00
2019-03-31T13:56:14.235Z,101311.09
2019-03-31T13:58:43.947Z,101307.48
2019-03-31T14:01:13.471Z,101304.60
2019-03-31T14:03:42.932Z,101298.34
2019-03-31T14:06:12.527Z,101298.80
2019-03-31T14:08:42.010Z,101299.03
2019-03-31T14:11:11.511Z,101293.94
2019-03-31T14:13:41.011Z,101297.55
2019-03-31T14:16:10.552Z,101296.95
2019-03-31T14:18:40.037Z,101296.02
2019-03-31T14:21:09.609Z,101288.38
2019-03-31T14:23:39.110Z,101288.60
2019-03-31T14:26:08.596Z,101284.56
2019-03-31T14:28:38.091Z,101283.86
2019-03-31T14:31:07.657Z,101290.44
2019-03-31T14:33:37.219Z,101297.31
2019-03-31T14:36:06.867Z,101286.20
2019-03-31T14:38:40.447Z,101290.59
2019-03-31T14:41:07.767Z,101290.93
2019-03-31T14:43:37.401Z,101283.27
2019-03-31T14:46:06.947Z,101282.58
2019-03-31T14:48:36.467Z,101286.88
2019-03-31T14:51:05.943Z,101281.66
2019-03-31T14:53:35.530Z,101279.12
2019-03-31T14:56:05.088Z,101286.77
2019-03-31T14:58:34.618Z,101282.24
2019-03-31T15:01:04.166Z,101277.98
2019-03-31T15:03:33.685Z,101283.17
2019-03-31T15:06:03.189Z,101284.24
2019-03-31T15:08:32.815Z,101279.72
2019-03-31T15:11:02.346Z,101286.33
2019-03-31T15:13:31.857Z,101291.75
2019-03-31T15:16:20.740Z,101280.28
2019-03-31T15:18:50.396Z,101290.92
2019-03-31T15:21:19.983Z,101288.05
2019-03-31T15:23:49.524Z,101282.83
2019-03-31T15:26:19.080Z,101286.53
2019-03-31T15:28:48.547Z,101285.50
2019-03-31T15:31:18.060Z,101290.59
2019-03-31T15:33:48.450Z,101288.61
2019-03-31T15:36:17.918Z,101296.48
2019-03-31T15:38:47.389Z,101290.23
2019-03-31T15:41:21.322Z,101287.81
2019-03-31T15:43:48.129Z,101287.34
2019-03-31T15:46:17.695Z,101291.61
2019-03-31T15:48:47.179Z,101294.16
2019-03-31T15:51:16.783Z,101297.85
2019-03-31T15:53:46.389Z,101287.08
2019-03-31T15:56:15.902Z,101293.33
2019-03-31T15:58:45.401Z,101292.30
2019-03-31T16:01:15.612Z,101297.38
2019-03-31T16:03:45.195Z,101295.86
2019-03-31T16:06:14.848Z,101292.51
2019-03-31T16:08:44.343Z,101298.28
2019-03-31T16:11:13.943Z,101297.58
2019-03-31T16:13:43.466Z,101298.23
2019-03-31T16:16:14.362Z,101292.88
2019-03-31T16:18:43.983Z,101303.27
2019-03-31T16:21:32.887Z,101312.28
2019-03-31T16:24:02.666Z,101308.33
2019-03-31T16:26:32.228Z,101306.02
2019-03-31T16:29:01.690Z,101306.81
2019-03-31T16:31:31.203Z,101303.66
2019-03-31T16:34:00.740Z,101308.04
2019-03-31T16:36:30.249Z,101306.62
2019-03-31T16:38:59.740Z,101306.84
2019-03-31T16:41:29.234Z,101316.75
2019-03-31T16:43:58.735Z,101314.51
2019-03-31T16:46:28.269Z,101313.65
2019-03-31T16:48:57.707Z,101316.98
2019-03-31T16:51:27.299Z,101324.11
2019-03-31T16:53:56.805Z,101323.48
2019-03-31T16:56:26.364Z,101319.05
2019-03-31T16:58:55.835Z,101323.89
2019-03-31T17:01:25.432Z,101327.09
2019-03-31T17:03:54.955Z,101321.52
2019-03-31T17:06:24.534Z,101326.09
2019-03-31T17:08:54.049Z,101321.55
2019-03-31T17:11:23.614Z,101328.00
2019-03-31T17:13:53.127Z,101325.95
2019-03-31T17:16:22.678Z,101335.03
2019-03-31T17:18:52.261Z,101333.61
2019-03-31T17:21:21.742Z,101339.57
2019-03-31T17:23:51.263Z,101347.23
2019-03-31T17:26:20.821Z,101345.56
2019-03-31T17:28:50.387Z,101343.88
2019-03-31T17:31:19.981Z,101347.50
2019-03-31T17:33:49.445Z,101342.53
2019-03-31T17:36:19.051Z,101340.61
2019-03-31T17:38:48.523Z,101338.20
2019-03-31T17:41:18.091Z,101341.80
2019-03-31T17:43:47.657Z,101334.34
2019-03-31T17:46:17.193Z,101341.61
2019-03-31T17:48:46.676Z,101344.05
2019-03-31T17:51:16.402Z,101340.70
2019-03-31T17:53:45.906Z,101344.53
2019-03-31T17:56:15.445Z,101346.94
2019-03-31T17:58:44.958Z,101344.75
2019-03-31T18:01:14.485Z,101344.19
2019-03-31T18:03:44.067Z,101350.52
2019-03-31T18:06:13.608Z,101351.33
2019-03-31T18:08:43.177Z,101347.72
2019-03-31T18:11:12.695Z,101349.34
2019-03-31T18:13:42.209Z,101356.71
2019-03-31T18:16:11.702Z,101351.19
2019-03-31T18:18:41.241Z,101352.53
2019-03-31T18:21:10.880Z,101353.57
2019-03-31T18:23:40.480Z,101364.76
2019-03-31T18:26:09.969Z,101368.55
2019-03-31T18:28:39.608Z,101371.75
2019-03-31T18:31:09.211Z,101372.45
2019-03-31T18:33:38.700Z,101373.47
2019-03-31T18:36:08.198Z,101377.50
2019-03-31T18:38:37.759Z,101374.88
2019-03-31T18:41:07.277Z,101370.64
2019-03-31T18:43:50.655Z,101381.52
2019-03-31T18:46:08.122Z,101384.97
2019-03-31T18:48:37.677Z,101387.06
2019-03-31T18:51:07.216Z,101395.71
2019-03-31T18:53:38.361Z,101394.71
2019-03-31T18:56:16.328Z,101394.27
2019-03-31T18:59:04.004Z,101398.77
2019-03-31T19:04:41.043Z,101400.08
2019-03-31T19:07:28.228Z,101405.97
2019-03-31T19:10:03.505Z,101401.41
2019-03-31T19:12:49.499Z,101408.67
2019-03-31T19:15:20.628Z,101408.47
2019-03-31T19:18:08.359Z,101402.50
2019-03-31T19:20:40.256Z,101402.33
2019-03-31T19:23:11.373Z,101403.83
2019-03-31T19:25:51.445Z,101402.48
2019-03-31T19:28:23.495Z,101406.45
2019-03-31T19:31:03.615Z,101412.33
2019-03-31T19:33:53.170Z,101420.92
2019-03-31T19:36:22.438Z,101429.55
2019-03-31T19:39:03.426Z,101423.03
2019-03-31T19:41:49.345Z,101428.91
2019-03-31T19:44:32.483Z,101422.39
2019-03-31T19:47:03.709Z,101424.71
2019-03-31T19:49:45.012Z,101422.86
2019-03-31T19:52:24.638Z,101426.23
2019-03-31T19:55:01.505Z,101426.89
2019-03-31T19:57:48.399Z,101433.27
2019-03-31T20:00:38.142Z,101430.63
2019-03-31T20:03:25.719Z,101427.69
2019-03-31T20:06:02.994Z,101435.79
2019-03-31T20:08:41.313Z,101430.07
2019-03-31T20:11:21.577Z,101436.19
2019-03-31T20:13:54.358Z,101429.09
2019-03-31T20:16:34.225Z,101430.27
2019-03-31T20:19:21.499Z,101428.94
2019-03-31T20:21:52.617Z,101421.88
2019-03-31T20:24:27.500Z,101426.03
2019-03-31T20:27:10.960Z,101424.15
2019-03-31T20:29:42.175Z,101425.27
2019-03-31T20:32:22.649Z,101415.35
2019-03-31T20:35:10.355Z,101421.72
2019-03-31T20:37:41.515Z,101430.23
2019-03-31T20:40:18.317Z,101426.42
2019-03-31T20:42:49.407Z,101416.54
2019-03-31T20:45:18.939Z,101421.20
2019-03-31T20:47:48.402Z,101420.95
2019-03-31T20:50:17.987Z,101425.08
2019-03-31T20:52:47.468Z,101428.95
2019-03-31T20:55:17.133Z,101429.81
2019-03-31T20:57:47.285Z,101436.44
2019-03-31T21:00:17.694Z,101434.80
2019-03-31T21:02:47.149Z,101435.66
2019-03-31T21:05:16.644Z,101436.78
2019-03-31T21:07:46.222Z,101441.77
2019-03-31T21:10:15.759Z,101441.52
2019-03-31T21:12:45.272Z,101443.75
2019-03-31T21:15:14.809Z,101454.50
2019-03-31T21:17:44.419Z,101444.36
2019-03-31T21:20:14.095Z,101452.09
2019-03-31T21:22:43.562Z,101446.63
2019-03-31T21:25:13.837Z,101457.37
2019-03-31T21:27:43.481Z,101458.55
2019-03-31T21:30:13.139Z,101461.65
2019-03-31T21:32:42.815Z,101458.67
2019-03-31T21:35:12.442Z,101465.31
2019-03-31T21:37:41.990Z,101465.62
2019-03-31T21:40:11.816Z,101466.23
2019-03-31T21:42:41.431Z,101467.13
2019-03-31T21:45:11.380Z,101462.23
2019-03-31T21:47:40.874Z,101469.70
2019-03-31T21:50:10.981Z,101464.55
2019-03-31T21:52:40.529Z,101467.37
2019-03-31T21:55:10.194Z,101460.59
2019-03-31T21:57:39.699Z,101456.55
2019-03-31T22:00:11.643Z,101457.75
2019-03-31T22:02:41.242Z,101453.14
2019-03-31T22:05:11.078Z,101463.41
2019-03-31T22:07:40.512Z,101457.95
2019-03-31T22:10:10.260Z,101462.67
2019-03-31T22:12:39.723Z,101461.89
2019-03-31T22:15:09.424Z,101458.68
2019-03-31T22:17:38.912Z,101454.64
2019-03-31T22:20:09.347Z,101462.63
2019-03-31T22:22:38.824Z,101458.00
2019-03-31T22:25:27.790Z,101465.45
2019-03-31T22:27:57.313Z,101458.92
2019-03-31T22:30:26.766Z,101458.14
2019-03-31T22:32:56.330Z,101458.21
2019-03-31T22:35:25.785Z,101454.95
2019-03-31T22:37:55.411Z,101455.28
2019-03-31T22:40:25.066Z,101451.49
2019-03-31T22:42:54.544Z,101460.31
2019-03-31T22:45:24.105Z,101460.91
2019-03-31T22:47:53.609Z,101456.23
2019-03-31T22:50:23.289Z,101459.30
2019-03-31T22:52:52.838Z,101459.63
2019-03-31T22:55:22.429Z,101455.00
2019-03-31T22:57:51.990Z,101448.98
2019-03-31T23:00:23.177Z,101452.58
2019-03-31T23:02:52.669Z,101447.42
2019-03-31T23:05:22.204Z,101447.73
2019-03-31T23:07:51.831Z,101454.59
2019-03-31T23:10:22.948Z,101447.27
2019-03-31T23:12:52.475Z,101444.54
2019-03-31T23:15:22.037Z,101451.98
2019-03-31T23:17:51.505Z,101448.16
2019-03-31T23:20:21.055Z,101451.48
2019-03-31T23:22:50.572Z,101449.33
2019-03-31T23:25:20.056Z,101442.53
2019-03-31T23:27:49.521Z,101440.63
2019-03-31T23:30:19.067Z,101446.97
2019-03-31T23:32:48.555Z,101439.61
2019-03-31T23:35:18.019Z,101444.04
2019-03-31T23:37:47.500Z,101441.35
2019-03-31T23:40:17.025Z,101444.41
2019-03-31T23:42:46.521Z,101443.92
2019-03-31T23:45:16.120Z,101443.14
2019-03-31T23:47:45.702Z,101445.10
2019-03-31T23:50:15.206Z,101440.24
2019-03-31T23:52:44.689Z,101438.92
2019-03-31T23:55:14.244Z,101436.23
2019-03-31T23:57:43.710Z,101431.91
